Time;durP1;ratioP1;P1;durP2;ratioP2;P2;SDS_P1;SDS_P2;PMS_P1;PMS_P2;Temp;Humidity;BMP_temperature;BMP_pressure;BME280_temperature;BME280_humidity;BME280_pressure;Samples;Min_cycle;Max_cycle;Signal;HPM_P1;HPM_P2
2023/12/21 00:04:50;;;;;;;0.60;0.60;;;;;;;5.01;59.46;99477.06;5343086;26;20063;-91
2023/12/21 00:07:56;;;;;;;1.35;1.02;;;;;;;5.12;59.46;99476.91;5305066;26;20057;-91
2023/12/21 00:10:59;;;;;;;0.03;0.03;;;;;;;5.09;59.47;99472.66;5326438;26;20033;-91
2023/12/21 00:13:26;;;;;;;0.68;0.60;;;;;;;5.01;59.46;99468.50;5308895;26;20060;-91
2023/12/21 00:15:54;;;;;;;0.22;0.22;;;;;;;5.23;59.47;99454.41;5305169;26;20045;-93
2023/12/21 00:18:20;;;;;;;1.20;1.10;;;;;;;5.04;59.46;99456.41;5305408;26;20080;-91
2023/12/21 00:20:45;;;;;;;0.00;0.00;;;;;;;5.10;59.46;99453.72;5305231;26;20105;-91
2023/12/21 00:23:10;;;;;;;0.52;0.52;;;;;;;5.33;59.47;99452.53;5305301;26;24184;-92
2023/12/21 00:25:36;;;;;;;0.00;0.00;;;;;;;5.36;59.47;99450.75;5304744;26;25148;-91
2023/12/21 00:28:01;;;;;;;1.20;1.10;;;;;;;5.28;59.47;99438.84;5305784;26;20112;-91
2023/12/21 00:30:27;;;;;;;0.00;0.00;;;;;;;5.29;59.47;99456.03;5286860;26;20134;-91
2023/12/21 00:32:53;;;;;;;0.00;0.00;;;;;;;5.44;59.48;99448.03;5287052;26;20349;-91
2023/12/21 00:35:18;;;;;;;0.00;0.00;;;;;;;5.52;59.48;99449.63;5305810;26;20044;-90
2023/12/21 00:37:44;;;;;;;0.00;0.00;;;;;;;5.71;59.50;99442.44;5306314;26;20709;-91
2023/12/21 00:40:12;;;;;;;0.00;0.00;;;;;;;5.53;59.49;99442.72;5306317;26;20123;-91
2023/12/21 00:42:41;;;;;;;0.00;0.00;;;;;;;5.64;59.49;99442.53;5308355;26;20127;-90
2023/12/21 00:45:07;;;;;;;0.50;0.50;;;;;;;5.51;59.48;99437.59;5306960;26;20048;-91
2023/12/21 00:47:32;;;;;;;0.00;0.00;;;;;;;5.58;59.49;99437.50;5304581;26;20103;-90
2023/12/21 00:49:58;;;;;;;0.17;0.17;;;;;;;5.73;59.50;99430.34;5283260;27;21145;-90
2023/12/21 00:52:23;;;;;;;0.20;0.20;;;;;;;5.78;59.50;99423.34;5282777;27;20068;-91
2023/12/21 00:54:49;;;;;;;0.77;0.77;;;;;;;5.65;59.49;99418.41;5283520;27;20065;-90
2023/12/21 00:57:14;;;;;;;0.00;0.00;;;;;;;5.84;59.51;99412.06;5283077;27;20085;-91
2023/12/21 00:59:40;;;;;;;0.00;0.00;;;;;;;5.86;59.50;99410.28;5266076;27;20052;-92
2023/12/21 01:02:05;;;;;;;0.00;0.00;;;;;;;5.71;59.50;99419.19;5266391;27;20094;-93
2023/12/21 01:04:31;;;;;;;0.13;0.13;;;;;;;5.70;59.50;99419.22;5265759;27;20369;-92
2023/12/21 01:06:56;;;;;;;3.53;0.45;;;;;;;5.78;59.50;99414.75;5266008;27;20120;-91
2023/12/21 01:09:43;;;;;;;0.00;0.00;;;;;;;5.80;59.50;99416.44;5283978;27;20092;-92
2023/12/21 01:12:08;;;;;;;0.35;0.35;;;;;;;5.91;59.51;99421.41;5284841;27;20088;-91
2023/12/21 01:14:34;;;;;;;0.00;0.00;;;;;;;5.83;59.51;99416.38;5265886;27;20044;-91
2023/12/21 01:16:59;;;;;;;0.00;0.00;;;;;;;5.83;59.51;99413.78;5265447;27;20057;-91
2023/12/21 01:20:08;;;;;;;0.00;0.00;;;;;;;5.87;59.50;99404.25;5265256;27;21064;-92
2023/12/21 01:22:33;;;;;;;0.00;0.00;;;;;;;5.95;59.51;99406.75;5289108;27;20052;-91
2023/12/21 01:24:58;;;;;;;0.00;0.00;;;;;;;5.84;59.51;99405.16;5265415;27;24662;-92
2023/12/21 01:27:24;;;;;;;0.00;0.00;;;;;;;5.91;59.51;99410.25;5283226;27;20402;-92
2023/12/21 01:29:49;;;;;;;0.00;0.00;;;;;;;6.08;59.52;99403.03;5265144;27;20344;-91
2023/12/21 01:32:15;;;;;;;0.00;0.00;;;;;;;5.90;59.50;99393.03;5283342;27;20072;-91
2023/12/21 01:34:59;;;;;;;0.00;0.00;;;;;;;6.15;59.52;99381.34;5265566;27;20147;-91
2023/12/21 01:37:25;;;;;;;0.00;0.00;;;;;;;5.89;59.50;99392.16;5303227;27;20056;-92
2023/12/21 01:39:50;;;;;;;0.00;0.00;;;;;;;5.87;59.50;99391.34;5265724;27;20108;-92
2023/12/21 01:42:15;;;;;;;0.00;0.00;;;;;;;6.01;59.51;99384.22;5283208;27;27421;-91
2023/12/21 01:44:41;;;;;;;0.00;0.00;;;;;;;6.08;59.52;99375.44;5265093;27;20116;-92
2023/12/21 01:47:06;;;;;;;0.00;0.00;;;;;;;6.27;59.52;99368.19;5267743;27;20107;-92
2023/12/21 01:49:32;;;;;;;0.00;0.00;;;;;;;6.27;59.52;99375.94;5265669;26;20086;-91
2023/12/21 01:51:57;;;;;;;0.00;0.00;;;;;;;6.10;59.52;99360.78;5265257;27;20471;-90
2023/12/21 01:54:23;;;;;;;0.15;0.15;;;;;;;6.10;59.52;99370.25;5282899;27;20098;-90
2023/12/21 01:56:48;;;;;;;1.60;0.70;;;;;;;6.09;59.52;99364.25;5301139;27;20103;-91
2023/12/21 01:59:14;;;;;;;0.10;0.10;;;;;;;6.25;59.52;99363.94;5264433;27;20120;-91
2023/12/21 02:01:39;;;;;;;0.00;0.00;;;;;;;6.28;59.53;99356.97;5282986;27;20433;-91
2023/12/21 02:04:05;;;;;;;0.00;0.00;;;;;;;6.14;59.52;99358.97;5264487;27;20151;-91
2023/12/21 02:06:30;;;;;;;0.00;0.00;;;;;;;6.20;59.53;99348.53;5264396;27;20120;-91
2023/12/21 02:08:56;;;;;;;0.10;0.10;;;;;;;6.47;59.54;99347.09;5264163;27;20115;-91
2023/12/21 02:11:21;;;;;;;0.00;0.00;;;;;;;6.45;59.54;99347.13;5264228;27;20651;-90
2023/12/21 02:13:46;;;;;;;0.15;0.15;;;;;;;6.58;59.54;99339.09;5282135;27;20103;-89
2023/12/21 02:16:23;;;;;;;0.00;0.00;;;;;;;6.60;59.55;99335.56;5263560;27;20115;-89
2023/12/21 02:18:49;;;;;;;0.00;0.00;;;;;;;6.52;59.54;99336.63;5281636;27;20057;-89
2023/12/21 02:21:15;;;;;;;0.03;0.03;;;;;;;6.46;59.54;99335.06;5282121;27;20052;-89
2023/12/21 02:23:41;;;;;;;0.00;0.00;;;;;;;6.56;59.54;99340.84;5263199;27;20068;-89
2023/12/21 02:26:07;;;;;;;0.00;0.00;;;;;;;6.56;59.54;99339.13;5281690;27;20068;-88
2023/12/21 02:28:32;;;;;;;0.00;0.00;;;;;;;6.78;59.55;99326.56;5262456;27;32738;-89
2023/12/21 02:30:57;;;;;;;0.00;0.00;;;;;;;6.69;59.55;99317.28;5299943;27;20088;-89
2023/12/21 02:33:23;;;;;;;0.00;0.00;;;;;;;6.99;59.57;99313.09;5280470;27;34626;-88
2023/12/21 02:35:48;;;;;;;0.10;0.10;;;;;;;6.67;59.55;99313.03;5281610;27;20152;-90
2023/12/21 02:38:13;;;;;;;0.00;0.00;;;;;;;6.66;59.55;99313.91;5282649;27;20061;-87
2023/12/21 02:40:39;;;;;;;0.10;0.10;;;;;;;6.60;59.55;99319.22;5300674;27;20068;-86
2023/12/21 02:43:04;;;;;;;3.40;0.45;;;;;;;6.63;59.54;99324.34;5282619;27;20350;-87
2023/12/21 02:45:30;;;;;;;0.00;0.00;;;;;;;6.74;59.56;99322.34;5321070;27;20431;-88
2023/12/21 02:47:55;;;;;;;0.00;0.00;;;;;;;6.74;59.55;99323.19;5300138;27;27974;-88
2023/12/21 02:50:20;;;;;;;2.08;1.45;;;;;;;6.58;59.55;99315.81;5284798;27;21907;-88
2023/12/21 02:52:46;;;;;;;0.00;0.00;;;;;;;6.58;59.55;99314.06;5282744;27;20065;-89
2023/12/21 02:55:11;;;;;;;0.00;0.00;;;;;;;6.55;59.54;99318.47;5321237;27;20064;-90
2023/12/21 02:57:37;;;;;;;0.00;0.00;;;;;;;6.78;59.55;99308.44;5264496;27;20091;-89
2023/12/21 03:00:02;;;;;;;1.00;0.32;;;;;;;6.67;59.55;99311.28;5282193;27;20064;-90
2023/12/21 03:02:28;;;;;;;0.00;0.00;;;;;;;6.77;59.55;99299.84;5264731;27;20048;-89
2023/12/21 03:04:53;;;;;;;0.00;0.00;;;;;;;6.99;59.57;99297.56;5320359;27;20539;-91
2023/12/21 03:07:19;;;;;;;0.00;0.00;;;;;;;6.74;59.56;99299.06;5282677;27;20230;-90
2023/12/21 03:09:44;;;;;;;0.00;0.00;;;;;;;6.86;59.55;99303.06;5282922;27;20100;-88
2023/12/21 03:12:09;;;;;;;0.00;0.00;;;;;;;6.84;59.55;99300.53;5282145;27;22473;-88
2023/12/21 03:14:35;;;;;;;0.20;0.20;;;;;;;6.64;59.54;99306.19;5264311;27;20113;-88
2023/12/21 03:17:00;;;;;;;0.00;0.00;;;;;;;6.63;59.54;99308.81;5263696;27;29663;-89
2023/12/21 03:19:25;;;;;;;0.00;0.00;;;;;;;6.57;59.54;99301.19;5263785;27;20437;-90
2023/12/21 03:21:51;;;;;;;0.00;0.00;;;;;;;6.68;59.55;99296.62;5301187;27;20126;-89
2023/12/21 03:24:16;;;;;;;1.20;0.52;;;;;;;6.45;59.54;99297.16;5263497;27;28208;-89
2023/12/21 03:26:44;;;;;;;0.00;0.00;;;;;;;6.46;59.54;99296.28;5282591;27;20088;-89
2023/12/21 03:29:09;;;;;;;0.00;0.00;;;;;;;6.53;59.54;99297.81;5283522;27;20096;-90
2023/12/21 03:31:35;;;;;;;0.00;0.00;;;;;;;6.48;59.53;99297.09;5282546;27;20071;-90
2023/12/21 03:34:00;;;;;;;0.10;0.10;;;;;;;6.33;59.53;99298.25;5264961;27;20143;-91
2023/12/21 03:36:27;;;;;;;0.00;0.00;;;;;;;6.58;59.54;99295.13;5265253;27;20057;-90
2023/12/21 03:38:52;;;;;;;0.20;0.15;;;;;;;6.59;59.55;99294.25;5283429;27;20056;-90
2023/12/21 03:41:18;;;;;;;0.00;0.00;;;;;;;6.53;59.54;99295.22;5282456;27;20040;-88
2023/12/21 03:43:43;;;;;;;0.00;0.00;;;;;;;6.51;59.54;99303.91;5281960;27;25071;-89
2023/12/21 03:46:09;;;;;;;0.00;0.00;;;;;;;6.57;59.54;99304.62;5264025;27;25161;-90
2023/12/21 03:48:34;;;;;;;1.23;1.15;;;;;;;6.76;59.55;99294.69;5300946;27;20056;-89
2023/12/21 03:51:00;;;;;;;0.00;0.00;;;;;;;6.56;59.53;99292.56;5265504;27;20086;-89
2023/12/21 03:53:25;;;;;;;0.20;0.10;;;;;;;6.26;59.52;99298.44;5284552;27;20087;-89
2023/12/21 03:55:51;;;;;;;0.00;0.00;;;;;;;6.30;59.53;99287.16;5282783;27;20115;-89
2023/12/21 03:58:16;;;;;;;1.35;0.73;;;;;;;6.21;59.52;99284.78;5283359;27;20668;-92
2023/12/21 04:00:41;;;;;;;0.00;0.00;;;;;;;6.17;59.52;99285.72;5283798;27;20104;-91
2023/12/21 04:03:07;;;;;;;0.30;0.30;;;;;;;6.20;59.52;99280.50;5265776;27;20645;-91
2023/12/21 04:05:32;;;;;;;0.35;0.20;;;;;;;6.24;59.52;99275.22;5265459;27;20112;-91
2023/12/21 04:07:58;;;;;;;0.00;0.00;;;;;;;6.00;59.51;99263.69;5265103;27;20690;-92
2023/12/21 04:10:23;;;;;;;0.00;0.00;;;;;;;6.04;59.51;99259.28;5266283;27;20106;-91
2023/12/21 04:12:48;;;;;;;0.00;0.00;;;;;;;5.89;59.50;99255.25;5265417;27;20100;-89
2023/12/21 04:15:16;;;;;;;0.00;0.00;;;;;;;6.06;59.52;99260.09;5265229;27;20125;-90
2023/12/21 04:17:41;;;;;;;0.22;0.10;;;;;;;6.08;59.52;99264.34;5284271;27;20052;-91
2023/12/21 04:20:07;;;;;;;0.00;0.00;;;;;;;6.11;59.51;99259.13;5265915;27;20109;-91
2023/12/21 04:22:33;;;;;;;0.15;0.15;;;;;;;6.05;59.51;99255.81;5265439;27;20057;-89
2023/12/21 04:24:58;;;;;;;0.00;0.00;;;;;;;5.99;59.51;99251.66;5301319;27;20870;-90
2023/12/21 04:27:24;;;;;;;1.12;0.57;;;;;;;6.07;59.51;99256.63;5264213;27;20107;-89
2023/12/21 04:29:50;;;;;;;0.03;0.03;;;;;;;6.01;59.51;99254.19;5320484;27;20049;-89
2023/12/21 04:32:15;;;;;;;0.00;0.00;;;;;;;5.82;59.50;99259.69;5300411;27;20421;-89
2023/12/21 04:34:41;;;;;;;0.13;0.13;;;;;;;5.93;59.51;99248.34;5282516;27;20096;-89
2023/12/21 04:37:06;;;;;;;0.00;0.00;;;;;;;5.99;59.51;99245.63;5300887;27;20101;-90
2023/12/21 04:39:31;;;;;;;0.00;0.00;;;;;;;5.96;59.51;99232.78;5283547;27;20055;-91
2023/12/21 04:41:57;;;;;;;0.10;0.10;;;;;;;5.75;59.50;99236.63;5282763;27;20099;-89
2023/12/21 04:44:22;;;;;;;0.00;0.00;;;;;;;5.83;59.51;99235.56;5300432;27;20099;-90
2023/12/21 04:46:49;;;;;;;0.20;0.20;;;;;;;6.06;59.52;99232.53;5264604;27;20070;-89
2023/12/21 04:49:19;;;;;;;3.92;0.55;;;;;;;6.13;59.51;99225.50;5300956;27;20444;-90
2023/12/21 04:51:45;;;;;;;;;;;;;;;5.82;59.50;99228.72;5301143;27;20098;-90
2023/12/21 04:54:11;;;;;;;0.10;0.10;;;;;;;5.75;59.49;99223.72;5284064;27;19948;-88
2023/12/21 04:56:41;;;;;;;0.22;0.22;;;;;;;5.84;59.51;99214.03;5284033;27;20072;-90
2023/12/21 04:59:07;;;;;;;0.32;0.28;;;;;;;5.70;59.49;99215.22;5281852;27;20621;-89
2023/12/21 05:01:32;;;;;;;0.62;0.40;;;;;;;5.77;59.50;99214.19;5282527;27;20674;-90
2023/12/21 05:03:58;;;;;;;0.37;0.30;;;;;;;6.01;59.51;99198.22;5263731;27;27633;-90
2023/12/21 05:06:24;;;;;;;0.00;0.00;;;;;;;5.80;59.50;99202.06;5283041;27;20060;-91
2023/12/21 05:08:50;;;;;;;0.35;0.35;;;;;;;5.42;59.48;99194.25;5265810;27;20357;-91
2023/12/21 05:11:15;;;;;;;1.37;0.15;;;;;;;5.35;59.47;99201.28;5265398;27;20123;-91
2023/12/21 05:13:40;;;;;;;0.32;0.32;;;;;;;5.44;59.48;99195.06;5282656;27;20422;-91
2023/12/21 05:16:23;;;;;;;0.10;0.10;;;;;;;5.66;59.49;99198.06;5283060;27;20080;-92
2023/12/21 05:18:49;;;;;;;0.00;0.00;;;;;;;5.34;59.48;99193.56;5264835;27;20057;-92
2023/12/21 05:21:15;;;;;;;0.43;0.15;;;;;;;5.17;59.47;99188.72;5265676;27;20078;-91
2023/12/21 05:23:40;;;;;;;0.40;0.40;;;;;;;5.48;59.48;99186.41;5266971;27;20409;-91
2023/12/21 05:26:10;;;;;;;0.20;0.20;;;;;;;5.32;59.48;99185.00;5283635;27;20473;-89
2023/12/21 05:28:38;;;;;;;0.90;0.90;;;;;;;5.34;59.47;99184.09;5282851;27;20078;-90
2023/12/21 05:31:03;;;;;;;11.02;10.02;;;;;;;5.09;59.46;99188.88;5300371;27;20065;-89
2023/12/21 05:33:29;;;;;;;16.33;10.63;;;;;;;5.27;59.47;99181.69;5282061;27;20083;-88
2023/12/21 05:35:54;;;;;;;30.52;10.00;;;;;;;5.05;59.46;99186.41;5320007;27;20104;-89
2023/12/21 05:38:19;;;;;;;2.42;2.30;;;;;;;4.90;59.45;99190.94;5264173;27;20418;-89
2023/12/21 05:40:45;;;;;;;2.08;1.10;;;;;;;5.03;59.46;99183.84;5281846;27;25106;-90
2023/12/21 05:43:10;;;;;;;0.10;0.10;;;;;;;5.33;59.48;99181.56;5264257;27;20072;-89
2023/12/21 05:45:36;;;;;;;0.10;0.10;;;;;;;5.36;59.47;99189.22;5282072;27;26199;-90
2023/12/21 05:48:01;;;;;;;0.65;0.65;;;;;;;5.04;59.46;99180.38;5264912;27;20061;-93
2023/12/21 05:50:27;;;;;;;0.82;0.82;;;;;;;5.15;59.45;99182.75;5283479;27;20136;-91
2023/12/21 05:52:53;;;;;;;0.52;0.52;;;;;;;5.24;59.47;99188.59;5265141;27;20401;-91
2023/12/21 05:55:18;;;;;;;0.57;0.55;;;;;;;5.28;59.47;99173.06;5282981;27;20057;-92
2023/12/21 05:57:43;;;;;;;0.00;0.00;;;;;;;5.02;59.46;99179.56;5267422;27;20072;-90
2023/12/21 06:00:10;;;;;;;0.08;0.08;;;;;;;4.75;59.44;99182.66;5284174;27;20099;-91
2023/12/21 06:02:35;;;;;;;1.02;0.82;;;;;;;4.69;59.44;99177.59;5302734;27;20078;-91
2023/12/21 06:05:00;;;;;;;0.20;0.20;;;;;;;4.82;59.45;99176.50;5279470;27;20076;-92
2023/12/21 06:07:26;;;;;;;1.05;1.00;;;;;;;4.86;59.45;99173.84;5258122;27;20045;-91
2023/12/21 06:09:52;;;;;;;0.00;0.00;;;;;;;5.02;59.46;99169.25;5262899;27;20073;-92
2023/12/21 06:12:17;;;;;;;0.35;0.35;;;;;;;5.12;59.46;99160.44;5258872;27;20066;-91
2023/12/21 06:14:42;;;;;;;2.03;1.83;;;;;;;5.10;59.46;99162.22;5278619;27;20081;-91
2023/12/21 06:17:09;;;;;;;0.15;0.15;;;;;;;5.11;59.46;99163.06;5258489;27;20102;-92
2023/12/21 06:19:35;;;;;;;23.48;1.05;;;;;;;5.16;59.46;99166.38;5260853;27;20065;-91
2023/12/21 06:22:00;;;;;;;3.83;1.65;;;;;;;5.14;59.46;99169.00;5244828;27;20076;-92
2023/12/21 06:24:31;;;;;;;0.37;0.37;;;;;;;5.04;59.46;99157.19;5262252;27;20065;-91
2023/12/21 06:26:56;;;;;;;0.00;0.00;;;;;;;5.03;59.46;99150.31;5263517;27;20115;-91
2023/12/21 06:29:21;;;;;;;0.75;0.75;;;;;;;4.92;59.45;99141.91;5258695;27;20155;-91
2023/12/21 06:31:47;;;;;;;1.52;1.42;;;;;;;4.63;59.43;99153.63;5243171;27;23631;-91
2023/12/21 06:34:12;;;;;;;3.47;0.52;;;;;;;4.90;59.45;99143.69;5243932;27;20322;-91
2023/12/21 06:36:38;;;;;;;0.25;0.25;;;;;;;4.77;59.44;99155.13;5260547;27;20141;-91
2023/12/21 06:39:03;;;;;;;3.65;1.48;;;;;;;4.77;59.44;99147.37;5246053;27;20367;-92
2023/12/21 06:41:29;;;;;;;0.00;0.00;;;;;;;4.79;59.45;99143.88;5244505;27;20109;-91
2023/12/21 06:43:54;;;;;;;2.90;0.98;;;;;;;4.71;59.43;99150.03;5258487;27;20077;-90
2023/12/21 06:46:44;;;;;;;0.00;0.00;;;;;;;4.65;59.44;99151.00;5258607;27;20402;-91
2023/12/21 06:49:11;;;;;;;1.48;1.42;;;;;;;4.66;59.44;99154.44;5257572;27;20079;-91
2023/12/21 06:51:36;;;;;;;1.77;1.20;;;;;;;4.51;59.43;99159.00;5260389;27;20236;-91
2023/12/21 06:54:02;;;;;;;1.27;1.10;;;;;;;4.53;59.43;99157.25;5244552;27;20075;-91
2023/12/21 06:56:27;;;;;;;0.88;0.88;;;;;;;4.55;59.43;99155.50;5262263;27;20083;-92
2023/12/21 06:58:53;;;;;;;1.87;0.60;;;;;;;4.62;59.44;99151.06;5279393;27;20392;-90
2023/12/21 07:01:26;;;;;;;1.02;0.98;;;;;;;4.51;59.43;99148.69;5245622;27;20069;-90
2023/12/21 07:03:52;;;;;;;0.57;0.57;;;;;;;4.45;59.42;99138.47;5269822;27;20083;-91
2023/12/21 07:06:17;;;;;;;0.55;0.55;;;;;;;4.49;59.42;99134.94;5258154;27;20314;-90
2023/12/21 07:08:43;;;;;;;0.65;0.35;;;;;;;4.33;59.41;99125.81;5265615;27;20076;-90
2023/12/21 07:11:09;;;;;;;0.43;0.43;;;;;;;4.46;59.42;99139.31;5265169;27;22764;-90
2023/12/21 07:13:35;;;;;;;0.00;0.00;;;;;;;4.40;59.42;99132.53;5300770;27;20744;-91
2023/12/21 07:16:01;;;;;;;0.08;0.08;;;;;;;4.53;59.43;99138.34;5264568;27;20061;-89
2023/12/21 07:18:27;;;;;;;0.55;0.52;;;;;;;4.49;59.42;99122.06;5282627;27;20064;-89
2023/12/21 07:20:52;;;;;;;1.40;1.30;;;;;;;4.87;59.45;99115.38;5264540;27;20072;-89
2023/12/21 07:23:18;;;;;;;0.75;0.70;;;;;;;4.76;59.44;99109.59;5282428;27;20726;-89
2023/12/21 07:25:43;;;;;;;0.77;0.70;;;;;;;4.60;59.43;99124.47;5300920;27;20081;-89
2023/12/21 07:28:08;;;;;;;0.40;0.40;;;;;;;4.45;59.42;99122.16;5300670;27;20380;-89
2023/12/21 07:30:34;;;;;;;0.55;0.55;;;;;;;4.37;59.42;99119.72;5263876;27;20124;-88
2023/12/21 07:32:59;;;;;;;0.20;0.20;;;;;;;4.61;59.44;99098.66;5282503;27;20112;-88
2023/12/21 07:35:25;;;;;;;0.40;0.40;;;;;;;4.62;59.44;99100.38;5283218;27;20139;-89
2023/12/21 07:37:50;;;;;;;0.10;0.10;;;;;;;4.58;59.43;99106.47;5265137;27;20079;-88
2023/12/21 07:40:15;;;;;;;0.20;0.20;;;;;;;4.74;59.44;99106.19;5282018;27;23230;-88
2023/12/21 07:42:41;;;;;;;1.45;0.90;;;;;;;4.67;59.44;99102.00;5263960;27;20072;-89
2023/12/21 07:45:07;;;;;;;0.30;0.30;;;;;;;4.96;59.45;99089.41;5263676;27;31969;-88
2023/12/21 07:47:32;;;;;;;1.23;0.50;;;;;;;4.92;59.45;99088.59;5264525;27;20106;-89
2023/12/21 07:49:57;;;;;;;0.28;0.28;;;;;;;5.40;59.48;99097.94;5282533;27;20068;-89
2023/12/21 07:52:23;;;;;;;5.10;1.85;;;;;;;5.38;59.47;99091.97;5282516;27;20073;-87
2023/12/21 07:54:48;;;;;;;1.17;0.98;;;;;;;5.49;59.48;99079.69;5265063;27;20422;-89
2023/12/21 07:57:14;;;;;;;1.02;0.93;;;;;;;5.63;59.49;99071.63;5282670;27;20080;-89
2023/12/21 07:59:40;;;;;;;0.55;0.55;;;;;;;5.75;59.49;99064.47;5301048;27;20100;-89
2023/12/21 08:02:06;;;;;;;0.10;0.10;;;;;;;6.14;59.52;99069.56;5301210;27;20061;-88
2023/12/21 08:04:31;;;;;;;0.25;0.22;;;;;;;6.30;59.53;99063.13;5287301;27;20064;-89
2023/12/21 08:06:57;;;;;;;0.98;0.98;;;;;;;6.42;59.54;99062.81;5300278;27;20448;-88
2023/12/21 08:09:22;;;;;;;0.43;0.43;;;;;;;6.69;59.55;99052.62;5282614;27;20095;-89
2023/12/21 08:11:48;;;;;;;0.10;0.10;;;;;;;6.68;59.55;99043.19;5263956;27;20065;-89
2023/12/21 08:14:16;;;;;;;0.85;0.85;;;;;;;6.82;59.56;99040.19;5263405;27;22221;-89
2023/12/21 08:16:41;;;;;;;1.12;1.02;;;;;;;6.84;59.56;99043.59;5264797;27;20068;-89
2023/12/21 08:19:06;;;;;;;0.17;0.17;;;;;;;6.91;59.56;99050.31;5263437;27;28538;-89
2023/12/21 08:21:32;;;;;;;0.20;0.20;;;;;;;6.95;59.57;99051.91;5281501;27;22988;-90
2023/12/21 08:23:58;;;;;;;0.82;0.82;;;;;;;7.01;59.56;99037.03;5283062;27;20053;-88
2023/12/21 08:26:23;;;;;;;0.10;0.10;;;;;;;7.04;59.57;99031.78;5320807;27;20056;-89
2023/12/21 08:28:48;;;;;;;3.28;1.10;;;;;;;7.17;59.57;99028.84;5300866;27;20123;-88
2023/12/21 08:31:24;;;;;;;0.00;0.00;;;;;;;7.15;59.57;99034.06;5300557;27;20072;-89
2023/12/21 08:33:50;;;;;;;0.00;0.00;;;;;;;7.19;59.58;99033.06;5259922;27;20057;-90
2023/12/21 08:36:15;;;;;;;0.00;0.00;;;;;;;7.32;59.58;99039.56;5273859;27;20084;-90
2023/12/21 08:38:41;;;;;;;0.65;0.65;;;;;;;7.44;59.59;99033.19;5263208;27;20465;-88
2023/12/21 08:41:07;;;;;;;0.45;0.45;;;;;;;7.38;59.59;99030.78;5282230;27;20056;-89
2023/12/21 08:43:32;;;;;;;1.75;0.98;;;;;;;7.51;59.59;99033.84;5282228;27;20080;-88
2023/12/21 08:45:58;;;;;;;0.70;0.62;;;;;;;7.44;59.59;99045.28;5300072;27;24632;-89
2023/12/21 08:48:23;;;;;;;0.08;0.08;;;;;;;7.49;59.59;99044.25;5282736;27;20487;-89
2023/12/21 08:50:48;;;;;;;0.00;0.00;;;;;;;7.51;59.60;99047.63;5263860;27;20160;-88
2023/12/21 08:53:14;;;;;;;0.88;0.88;;;;;;;7.53;59.59;99045.84;5300141;27;20155;-90
2023/12/21 08:55:39;;;;;;;0.62;0.62;;;;;;;7.52;59.59;99045.88;5281183;27;30160;-89
2023/12/21 08:58:05;;;;;;;0.28;0.28;;;;;;;7.52;59.59;99044.12;5282403;27;20167;-89
2023/12/21 09:00:30;;;;;;;0.35;0.35;;;;;;;7.62;59.59;99048.16;5282140;27;20413;-89
2023/12/21 09:02:55;;;;;;;0.05;0.00;;;;;;;7.69;59.61;99036.69;5300166;27;20340;-89
2023/12/21 09:05:21;;;;;;;1.27;1.23;;;;;;;7.76;59.61;99041.69;5281921;27;20148;-90
2023/12/21 09:07:46;;;;;;;0.37;0.37;;;;;;;7.96;59.62;99044.47;5285648;27;20080;-88
2023/12/21 09:10:12;;;;;;;0.30;0.30;;;;;;;7.93;59.62;99045.44;5282117;27;20826;-89
2023/12/21 09:12:37;;;;;;;0.90;0.80;;;;;;;8.06;59.62;99038.13;5263943;27;20386;-89
2023/12/21 09:15:06;;;;;;;0.70;0.32;;;;;;;8.11;59.63;99043.97;5281892;27;20117;-89
2023/12/21 09:17:32;;;;;;;0.90;0.80;;;;;;;8.05;59.63;99039.00;5320276;27;20118;-90
2023/12/21 09:19:57;;;;;;;2.37;1.15;;;;;;;8.09;59.63;99031.97;5281818;27;20072;-89
2023/12/21 09:22:22;;;;;;;0.17;0.17;;;;;;;8.02;59.63;99023.53;5263341;27;28307;-89
2023/12/21 09:24:48;;;;;;;2.60;1.17;;;;;;;8.21;59.63;99019.44;5281773;27;20136;-89
2023/12/21 09:27:14;;;;;;;0.20;0.20;;;;;;;8.26;59.63;99011.50;5300424;27;20113;-89
2023/12/21 09:29:42;;;;;;;4.70;0.65;;;;;;;8.20;59.63;99003.94;5281594;27;20112;-90
2023/12/21 09:32:08;;;;;;;0.00;0.00;;;;;;;8.25;59.64;99005.47;5300080;27;20056;-89
2023/12/21 09:34:34;;;;;;;1.30;1.23;;;;;;;8.30;59.64;99003.59;5300089;27;20075;-89
2023/12/21 09:36:59;;;;;;;0.10;0.10;;;;;;;8.29;59.63;98999.28;5300165;27;20088;-89
2023/12/21 09:39:25;;;;;;;0.03;0.03;;;;;;;8.37;59.65;98988.69;5281700;27;20084;-88
2023/12/21 09:41:50;;;;;;;0.00;0.00;;;;;;;8.34;59.64;98993.13;5281621;27;20383;-90
2023/12/21 09:44:17;;;;;;;6.50;1.30;;;;;;;8.17;59.63;98983.31;5300044;27;20365;-89
2023/12/21 09:46:48;;;;;;;0.20;0.20;;;;;;;8.28;59.64;98968.22;5283278;27;20442;-90
2023/12/21 09:49:14;;;;;;;0.25;0.22;;;;;;;8.42;59.64;98962.56;5283419;27;20060;-89
2023/12/21 09:51:40;;;;;;;0.73;0.55;;;;;;;8.58;59.65;98951.59;5301056;27;20048;-89
2023/12/21 09:54:06;;;;;;;0.82;0.82;;;;;;;8.50;59.64;98944.97;5263816;27;22582;-89
2023/12/21 09:56:32;;;;;;;0.47;0.40;;;;;;;8.68;59.66;98933.09;5264822;27;20082;-89
2023/12/21 09:58:58;;;;;;;0.00;0.00;;;;;;;8.77;59.67;98932.75;5264655;27;20087;-89
2023/12/21 10:01:23;;;;;;;0.50;0.50;;;;;;;8.74;59.67;98938.88;5264833;27;20064;-89
2023/12/21 10:03:49;;;;;;;2.75;1.80;;;;;;;8.86;59.67;98942.78;5282363;27;20629;-90
2023/12/21 10:06:15;;;;;;;0.20;0.20;;;;;;;8.89;59.67;98946.09;5263787;27;28657;-89
2023/12/21 10:08:41;;;;;;;1.08;0.75;;;;;;;8.88;59.67;98943.56;5303298;27;20060;-89
2023/12/21 10:11:07;;;;;;;0.60;0.60;;;;;;;8.90;59.68;98934.81;5266021;27;20075;-89
2023/12/21 10:13:33;;;;;;;0.45;0.45;;;;;;;8.93;59.67;98924.31;5281385;27;29124;-89
2023/12/21 10:15:59;;;;;;;1.65;1.55;;;;;;;8.96;59.67;98920.75;5282790;27;20401;-89
2023/12/21 10:18:26;;;;;;;0.03;0.03;;;;;;;9.01;59.67;98908.47;5300884;27;20072;-89
2023/12/21 10:20:53;;;;;;;0.90;0.90;;;;;;;8.97;59.67;98911.22;5264516;27;20075;-89
2023/12/21 10:23:19;;;;;;;0.08;0.08;;;;;;;9.12;59.67;98900.25;5320633;27;20061;-89
2023/12/21 10:25:46;;;;;;;0.35;0.30;;;;;;;9.25;59.69;98892.81;5282740;27;20075;-89
2023/12/21 10:28:11;;;;;;;0.80;0.80;;;;;;;9.17;59.69;98898.31;5282406;27;20060;-89
2023/12/21 10:30:37;;;;;;;0.88;0.88;;;;;;;9.29;59.70;98890.03;5264196;27;20414;-90
2023/12/21 10:33:03;;;;;;;0.47;0.47;;;;;;;9.35;59.70;98881.16;5282580;27;20495;-89
2023/12/21 10:35:28;;;;;;;0.45;0.40;;;;;;;9.31;59.69;98864.84;5282606;27;20061;-89
2023/12/21 10:37:54;;;;;;;0.95;0.40;;;;;;;9.40;59.70;98853.22;5319849;27;27839;-89
2023/12/21 10:40:21;;;;;;;0.45;0.40;;;;;;;9.49;59.71;98840.72;5320874;27;20073;-89
2023/12/21 10:42:51;;;;;;;0.00;0.00;;;;;;;9.30;59.70;98838.94;5300663;27;20068;-89
2023/12/21 10:45:18;;;;;;;0.30;0.30;;;;;;;9.67;59.72;98820.03;5301756;27;20068;-89
2023/12/21 10:47:48;;;;;;;0.00;0.00;;;;;;;9.77;59.71;98822.19;5300924;27;20053;-89
2023/12/21 10:50:15;;;;;;;0.37;0.37;;;;;;;9.84;59.72;98807.16;5282900;27;20052;-89
2023/12/21 10:52:40;;;;;;;0.20;0.20;;;;;;;10.03;59.73;98805.44;5282992;27;20401;-89
2023/12/21 10:55:07;;;;;;;0.03;0.03;;;;;;;9.99;59.73;98796.09;5300908;27;20211;-89
2023/12/21 10:57:32;;;;;;;0.98;0.52;;;;;;;10.04;59.74;98786.31;5300497;27;20071;-89
2023/12/21 10:59:57;;;;;;;0.35;0.35;;;;;;;10.03;59.74;98773.41;5300898;27;20064;-89
2023/12/21 11:02:23;;;;;;;1.17;0.90;;;;;;;9.94;59.73;98761.66;5282652;27;20097;-89
2023/12/21 11:04:48;;;;;;;0.80;0.30;;;;;;;10.11;59.74;98751.31;5274718;27;20109;-89
2023/12/21 11:07:14;;;;;;;0.15;0.15;;;;;;;10.21;59.74;98746.59;5275056;27;20461;-89
2023/12/21 11:09:40;;;;;;;1.45;0.52;;;;;;;10.26;59.75;98742.00;5277814;27;20077;-89
2023/12/21 11:12:08;;;;;;;0.57;0.57;;;;;;;10.33;59.76;98737.34;5279244;27;20069;-89
2023/12/21 11:14:33;;;;;;;0.35;0.35;;;;;;;10.21;59.74;98738.78;5258655;27;20066;-88
2023/12/21 11:16:59;;;;;;;0.43;0.43;;;;;;;10.29;59.75;98728.03;5257122;27;20113;-89
2023/12/21 11:19:34;;;;;;;3.42;1.67;;;;;;;10.43;59.76;98717.81;5238888;27;20462;-89
2023/12/21 11:22:00;;;;;;;0.05;0.05;;;;;;;10.42;59.76;98716.12;5257072;27;20120;-89
2023/12/21 11:24:26;;;;;;;0.17;0.17;;;;;;;10.45;59.76;98716.81;5257316;27;20663;-89
2023/12/21 11:26:51;;;;;;;0.57;0.57;;;;;;;10.47;59.76;98708.94;5260426;27;20094;-89
2023/12/21 11:29:24;;;;;;;0.10;0.10;;;;;;;10.50;59.76;98705.34;5242437;27;20072;-89
2023/12/21 11:31:50;;;;;;;0.62;0.35;;;;;;;10.56;59.77;98692.88;5274673;27;20427;-89
2023/12/21 11:34:18;;;;;;;0.37;0.37;;;;;;;10.41;59.76;98697.06;5269127;27;29831;-89
2023/12/21 11:36:44;;;;;;;0.10;0.10;;;;;;;10.52;59.76;98678.34;5278234;27;20112;-89
2023/12/21 11:39:15;;;;;;;0.25;0.25;;;;;;;10.44;59.76;98683.91;5242774;27;20188;-89
2023/12/21 11:41:59;;;;;;;0.60;0.60;;;;;;;10.44;59.76;98678.72;5259369;27;20065;-89